createdAt,value
2023-02-01T00:00:37.829Z,96.40
2023-02-01T00:03:06.560Z,96.42
2023-02-01T00:05:33.872Z,96.78
2023-02-01T00:08:01.196Z,97.13
2023-02-01T00:10:28.508Z,97.38
2023-02-01T00:12:55.961Z,98.53
2023-02-01T00:15:24.133Z,97.76
2023-02-01T00:17:55.708Z,97.97
2023-02-01T00:20:23.173Z,98.63
2023-02-01T00:22:50.623Z,97.59
2023-02-01T00:25:17.999Z,98.38
2023-02-01T00:27:49.933Z,98.41
2023-02-01T00:30:18.704Z,97.31
2023-02-01T00:32:47.331Z,96.65
2023-02-01T00:35:14.735Z,96.64
2023-02-01T00:37:42.035Z,96.23
2023-02-01T00:40:09.859Z,95.96
2023-02-01T00:42:37.335Z,95.41
2023-02-01T00:45:05.011Z,95.28
2023-02-01T00:47:33.352Z,94.49
2023-02-01T00:50:00.682Z,94.53
2023-02-01T00:52:29.952Z,92.87
2023-02-01T00:54:57.301Z,92.64
2023-02-01T00:57:24.654Z,93.04
2023-02-01T00:59:51.935Z,90.33
2023-02-01T01:02:19.432Z,92.26
2023-02-01T01:04:47.908Z,91.81
2023-02-01T01:07:15.596Z,91.86
2023-02-01T01:09:42.910Z,91.15
2023-02-01T01:12:12.011Z,90.83
2023-02-01T01:14:39.267Z,89.88
2023-02-01T01:17:06.635Z,89.36
2023-02-01T01:19:33.920Z,89.46
2023-02-01T01:22:01.228Z,89.29
2023-02-01T01:24:28.548Z,89.34
2023-02-01T01:26:55.921Z,88.52
2023-02-01T01:29:23.207Z,90.42
2023-02-01T01:31:50.635Z,91.49
2023-02-01T01:34:17.963Z,89.88
2023-02-01T01:36:45.297Z,90.46
2023-02-01T01:39:12.820Z,90.98
2023-02-01T01:41:40.321Z,91.39
2023-02-01T01:44:55.995Z,91.76
2023-02-01T01:47:23.635Z,95.12
2023-02-01T01:49:51.788Z,98.54
2023-02-01T01:52:20.115Z,100.00
2023-02-01T01:54:52.369Z,100.00
2023-02-01T01:57:29.823Z,100.00
2023-02-01T02:00:10.691Z,100.00
2023-02-01T02:02:48.643Z,100.00
2023-02-01T02:05:18.231Z,100.00
2023-02-01T02:07:49.877Z,100.00
2023-02-01T02:10:18.254Z,100.00
2023-02-01T02:12:49.026Z,100.00
2023-02-01T02:15:18.079Z,100.00
2023-02-01T02:17:59.158Z,100.00
2023-02-01T02:21:04.347Z,100.00
2023-02-01T02:24:01.188Z,100.00
2023-02-01T02:26:40.768Z,100.00
2023-02-01T02:29:40.791Z,100.00
2023-02-01T02:32:20.262Z,100.00
2023-02-01T02:34:57.022Z,100.00
2023-02-01T02:37:36.312Z,100.00
2023-02-01T02:40:21.977Z,100.00
2023-02-01T02:43:35.252Z,100.00
2023-02-01T02:46:46.127Z,100.00
2023-02-01T02:49:35.243Z,100.00
2023-02-01T02:52:42.192Z,100.00
2023-02-01T02:55:11.203Z,100.00
2023-02-01T02:58:02.445Z,100.00
2023-02-01T03:00:52.132Z,100.00
2023-02-01T03:03:38.360Z,100.00
2023-02-01T03:06:15.850Z,100.00
2023-02-01T03:08:46.333Z,100.00
2023-02-01T03:11:15.985Z,100.00
2023-02-01T03:13:54.055Z,100.00
2023-02-01T03:16:34.449Z,100.00
2023-02-01T03:19:09.327Z,100.00
2023-02-01T03:21:40.708Z,100.00
2023-02-01T03:24:34.477Z,100.00
2023-02-01T03:27:24.245Z,100.00
2023-02-01T03:30:02.206Z,100.00
2023-02-01T03:32:30.395Z,100.00
2023-02-01T03:34:57.787Z,100.00
2023-02-01T03:37:28.879Z,100.00
2023-02-01T03:40:02.198Z,100.00
2023-02-01T03:42:38.173Z,100.00
2023-02-01T03:45:12.145Z,100.00
2023-02-01T03:47:44.378Z,100.00
2023-02-01T03:50:18.436Z,100.00
2023-02-01T03:53:02.660Z,100.00
2023-02-01T03:55:32.909Z,100.00
2023-02-01T03:58:08.891Z,100.00
2023-02-01T04:00:37.173Z,100.00
2023-02-01T04:03:05.940Z,100.00
2023-02-01T04:05:34.025Z,100.00
2023-02-01T04:08:06.987Z,100.00
2023-02-01T04:10:34.489Z,100.00
2023-02-01T04:13:01.818Z,100.00
2023-02-01T04:15:29.153Z,100.00
2023-02-01T04:17:56.504Z,100.00
2023-02-01T04:20:24.669Z,100.00
2023-02-01T04:22:52.128Z,100.00
2023-02-01T04:25:19.530Z,100.00
2023-02-01T04:27:47.918Z,100.00
2023-02-01T04:30:15.912Z,100.00
2023-02-01T04:32:43.453Z,100.00
2023-02-01T04:35:10.980Z,100.00
2023-02-01T04:37:38.248Z,99.48
2023-02-01T04:40:06.252Z,99.61
2023-02-01T04:42:33.544Z,99.49
2023-02-01T04:45:00.877Z,100.00
2023-02-01T04:47:28.284Z,99.94
2023-02-01T04:49:56.092Z,100.00
2023-02-01T04:52:23.554Z,100.00
2023-02-01T04:54:51.081Z,100.00
2023-02-01T04:57:18.522Z,100.00
2023-02-01T04:59:46.092Z,100.00
2023-02-01T05:02:13.837Z,100.00
2023-02-01T05:04:41.239Z,100.00
2023-02-01T05:07:08.827Z,100.00
2023-02-01T05:09:36.700Z,100.00
2023-02-01T05:12:23.288Z,100.00
2023-02-01T05:14:50.787Z,100.00
2023-02-01T05:17:18.365Z,100.00
2023-02-01T05:19:45.725Z,100.00
2023-02-01T05:22:13.046Z,100.00
2023-02-01T05:24:40.590Z,100.00
2023-02-01T05:27:08.100Z,100.00
2023-02-01T05:29:35.493Z,100.00
2023-02-01T05:32:19.347Z,100.00
2023-02-01T05:34:48.865Z,100.00
2023-02-01T05:37:16.288Z,100.00
2023-02-01T05:39:43.840Z,100.00
2023-02-01T05:42:11.638Z,100.00
2023-02-01T05:44:39.053Z,100.00
2023-02-01T05:47:06.623Z,100.00
2023-02-01T05:49:34.044Z,100.00
2023-02-01T05:52:01.410Z,100.00
2023-02-01T05:54:29.150Z,100.00
2023-02-01T05:56:56.516Z,100.00
2023-02-01T05:59:24.290Z,100.00
2023-02-01T06:01:52.036Z,100.00
2023-02-01T06:04:19.612Z,100.00
2023-02-01T06:06:46.997Z,100.00
2023-02-01T06:09:14.340Z,100.00
2023-02-01T06:11:42.417Z,100.00
2023-02-01T06:14:09.811Z,100.00
2023-02-01T06:16:37.312Z,100.00
2023-02-01T06:19:04.734Z,100.00
2023-02-01T06:21:32.194Z,100.00
2023-02-01T06:24:00.049Z,100.00
2023-02-01T06:26:29.598Z,100.00
2023-02-01T06:28:57.564Z,100.00
2023-02-01T06:31:26.348Z,100.00
2023-02-01T06:33:54.620Z,100.00
2023-02-01T06:36:22.344Z,100.00
2023-02-01T06:38:50.139Z,100.00
2023-02-01T06:41:17.989Z,100.00
2023-02-01T06:43:47.309Z,100.00
2023-02-01T06:46:14.965Z,100.00
2023-02-01T06:48:42.810Z,100.00
2023-02-01T06:51:39.764Z,100.00
2023-02-01T06:54:07.220Z,100.00
2023-02-01T06:56:34.697Z,100.00
2023-02-01T06:59:05.504Z,100.00
2023-02-01T07:01:33.531Z,100.00
2023-02-01T07:04:01.023Z,100.00
2023-02-01T07:06:28.518Z,100.00
2023-02-01T07:08:56.924Z,100.00
2023-02-01T07:11:24.776Z,99.17
2023-02-01T07:13:53.393Z,98.48
2023-02-01T07:16:21.856Z,96.93
2023-02-01T07:18:51.828Z,94.23
2023-02-01T07:21:20.239Z,93.79
2023-02-01T07:23:47.665Z,92.08
2023-02-01T07:26:17.453Z,92.78
2023-02-01T07:28:45.062Z,91.58
2023-02-01T07:31:16.606Z,89.37
2023-02-01T07:33:44.255Z,86.31
2023-02-01T07:36:13.836Z,85.31
2023-02-01T07:38:41.772Z,84.71
2023-02-01T07:41:09.936Z,85.59
2023-02-01T07:43:37.643Z,84.76
2023-02-01T07:46:06.406Z,83.51
2023-02-01T07:48:37.397Z,82.10
2023-02-01T07:51:13.256Z,81.51
2023-02-01T07:53:41.710Z,80.28
2023-02-01T07:56:19.867Z,78.52
2023-02-01T07:58:52.503Z,76.02
2023-02-01T08:01:25.389Z,75.94
2023-02-01T08:04:00.051Z,75.53
2023-02-01T08:06:29.637Z,75.83
2023-02-01T08:08:57.079Z,73.90
2023-02-01T08:11:25.999Z,73.22
2023-02-01T08:13:54.213Z,72.40
2023-02-01T08:16:22.594Z,72.64
2023-02-01T08:18:50.483Z,73.46
2023-02-01T08:21:24.152Z,71.79
2023-02-01T08:23:52.721Z,68.74
2023-02-01T08:26:23.173Z,67.71
2023-02-01T08:28:54.360Z,65.89
2023-02-01T08:31:24.111Z,65.07
2023-02-01T08:33:54.779Z,66.10
2023-02-01T08:36:23.979Z,64.93
2023-02-01T08:38:51.898Z,64.17
2023-02-01T08:41:22.876Z,63.58
2023-02-01T08:43:50.583Z,64.48
2023-02-01T08:46:18.662Z,65.76
2023-02-01T08:48:48.126Z,68.05
2023-02-01T08:51:18.790Z,68.12
2023-02-01T08:53:46.535Z,69.26
2023-02-01T08:56:16.749Z,69.11
2023-02-01T08:58:45.399Z,69.87
2023-02-01T09:01:15.188Z,69.36
2023-02-01T09:03:42.860Z,69.79
2023-02-01T09:06:12.656Z,67.03
2023-02-01T09:08:41.255Z,66.64
2023-02-01T09:11:12.463Z,65.72
2023-02-01T09:13:39.917Z,63.06
2023-02-01T09:16:07.865Z,60.51
2023-02-01T09:18:35.817Z,58.20
2023-02-01T09:21:09.533Z,55.15
2023-02-01T09:23:37.598Z,53.15
2023-02-01T09:26:06.196Z,51.73
2023-02-01T09:28:34.005Z,49.88
2023-02-01T09:31:02.697Z,47.43
2023-02-01T09:33:30.754Z,47.15
2023-02-01T09:36:00.000Z,48.68
2023-02-01T09:38:28.471Z,49.03
2023-02-01T09:40:57.103Z,48.53
2023-02-01T09:43:48.376Z,49.71
2023-02-01T09:46:22.237Z,48.60
2023-02-01T09:48:53.320Z,48.00
2023-02-01T09:51:26.544Z,46.59
2023-02-01T09:54:05.381Z,47.90
2023-02-01T09:56:43.330Z,50.64
2023-02-01T09:59:33.524Z,51.54
2023-02-01T10:02:05.463Z,53.42
2023-02-01T10:04:34.466Z,53.94
2023-02-01T10:07:12.781Z,53.23
2023-02-01T10:10:00.669Z,56.77
2023-02-01T10:12:43.411Z,55.82
2023-02-01T10:15:25.728Z,57.71
2023-02-01T10:18:28.452Z,60.17
2023-02-01T10:21:18.536Z,55.90
2023-02-01T10:24:23.355Z,57.84
2023-02-01T10:27:12.698Z,58.34
2023-02-01T10:29:47.046Z,58.99
2023-02-01T10:32:18.144Z,57.93
2023-02-01T10:34:50.822Z,55.93
2023-02-01T10:37:26.064Z,58.08
2023-02-01T10:39:59.026Z,60.98
2023-02-01T10:42:48.151Z,58.81
2023-02-01T10:45:20.198Z,60.26
2023-02-01T10:47:48.400Z,62.34
2023-02-01T10:50:37.300Z,62.88
2023-02-01T10:53:07.848Z,63.58
2023-02-01T10:55:47.092Z,60.28
2023-02-01T10:58:30.376Z,63.14
2023-02-01T11:01:03.916Z,62.90
2023-02-01T11:03:33.712Z,63.29
2023-02-01T11:06:03.776Z,64.59
2023-02-01T11:08:31.575Z,63.95
2023-02-01T11:11:02.470Z,64.86
2023-02-01T11:13:32.932Z,61.44
2023-02-01T11:16:03.900Z,61.93
2023-02-01T11:18:38.676Z,59.70
2023-02-01T11:21:07.838Z,61.29
2023-02-01T11:23:42.165Z,62.15
2023-02-01T11:26:24.314Z,61.56
2023-02-01T11:28:58.624Z,63.57
2023-02-01T11:31:28.683Z,64.37
2023-02-01T11:34:05.191Z,63.66
2023-02-01T11:36:34.873Z,64.29
2023-02-01T11:39:19.762Z,62.27
2023-02-01T11:42:07.310Z,62.70
2023-02-01T11:44:38.186Z,63.47
2023-02-01T11:47:29.258Z,64.10
2023-02-01T11:50:10.483Z,66.56
2023-02-01T11:53:21.396Z,65.90
2023-02-01T11:56:10.127Z,66.13
2023-02-01T11:59:07.702Z,65.67
2023-02-01T12:01:35.505Z,64.73
2023-02-01T12:04:25.704Z,64.20
2023-02-01T12:06:57.860Z,64.35
2023-02-01T12:09:26.636Z,63.57
2023-02-01T12:12:15.381Z,66.73
2023-02-01T12:15:10.184Z,67.51
2023-02-01T12:17:55.092Z,66.79
2023-02-01T12:20:35.836Z,65.05
2023-02-01T12:23:31.314Z,65.26
2023-02-01T12:26:26.401Z,65.60
2023-02-01T12:29:17.765Z,64.74
2023-02-01T12:31:57.977Z,62.53
2023-02-01T12:34:45.542Z,64.36
2023-02-01T12:37:39.574Z,66.29
2023-02-01T12:40:23.563Z,66.88
2023-02-01T12:43:07.069Z,69.15
2023-02-01T12:45:49.221Z,68.69
2023-02-01T12:48:19.569Z,68.84
2023-02-01T12:50:55.681Z,70.39
2023-02-01T12:53:35.005Z,68.27
2023-02-01T12:56:11.173Z,68.69
2023-02-01T12:58:47.294Z,69.99
2023-02-01T13:01:36.242Z,69.17
2023-02-01T13:04:20.924Z,69.16
2023-02-01T13:07:12.720Z,69.35
2023-02-01T13:09:51.709Z,69.06
2023-02-01T13:12:57.671Z,67.10
2023-02-01T13:16:02.454Z,66.88
2023-02-01T13:18:38.364Z,67.24
2023-02-01T13:21:16.125Z,69.87
2023-02-01T13:23:47.735Z,69.36
2023-02-01T13:26:15.352Z,67.86
2023-02-01T13:28:48.307Z,70.54
2023-02-01T13:31:28.650Z,71.92
2023-02-01T13:34:46.128Z,73.08
2023-02-01T13:38:06.232Z,72.24
2023-02-01T13:40:48.901Z,71.61
2023-02-01T13:43:29.821Z,71.63
2023-02-01T13:46:03.597Z,71.32
2023-02-01T13:48:40.319Z,73.31
2023-02-01T13:51:08.832Z,72.71
2023-02-01T13:53:38.970Z,73.24
2023-02-01T13:56:25.269Z,71.67
2023-02-01T13:58:53.032Z,71.35
2023-02-01T14:01:23.481Z,72.26
2023-02-01T14:04:32.313Z,73.06
2023-02-01T14:06:59.904Z,72.60
2023-02-01T14:09:39.743Z,74.45
2023-02-01T14:12:45.471Z,74.16
2023-02-01T14:16:02.457Z,75.15
2023-02-01T14:18:35.823Z,74.24
2023-02-01T14:21:34.355Z,74.03
2023-02-01T14:24:23.547Z,74.75
2023-02-01T14:26:53.969Z,76.08
2023-02-01T14:29:36.374Z,76.58
2023-02-01T14:32:21.892Z,77.28
2023-02-01T14:34:49.304Z,77.73
2023-02-01T14:37:19.644Z,76.38
2023-02-01T14:39:46.975Z,75.27
2023-02-01T14:42:26.582Z,76.22
2023-02-01T14:44:58.657Z,75.75
2023-02-01T14:47:32.133Z,76.33
2023-02-01T14:50:26.116Z,76.95
2023-02-01T14:53:04.853Z,76.74
2023-02-01T14:55:44.823Z,79.11
2023-02-01T14:58:46.649Z,79.49
2023-02-01T15:01:23.839Z,79.80
2023-02-01T15:03:57.531Z,79.63
2023-02-01T15:06:29.072Z,79.88
2023-02-01T15:09:01.084Z,80.18
2023-02-01T15:11:28.865Z,79.74
2023-02-01T15:13:57.582Z,81.15
2023-02-01T15:16:27.133Z,81.24
2023-02-01T15:19:12.318Z,80.91
2023-02-01T15:21:46.847Z,81.90
2023-02-01T15:24:27.735Z,83.05
2023-02-01T15:26:56.786Z,82.79
2023-02-01T15:29:30.450Z,83.57
2023-02-01T15:31:57.963Z,84.66
2023-02-01T15:34:46.785Z,85.68
2023-02-01T15:37:21.034Z,84.84
2023-02-01T15:40:13.278Z,86.96
2023-02-01T15:42:56.107Z,87.40
2023-02-01T15:45:31.186Z,88.51
2023-02-01T15:47:59.952Z,89.52
2023-02-01T15:50:31.311Z,89.84
2023-02-01T15:52:59.027Z,89.90
2023-02-01T15:55:42.967Z,90.94
2023-02-01T15:58:19.833Z,91.90
2023-02-01T16:00:52.558Z,92.09
2023-02-01T16:03:39.901Z,92.60
2023-02-01T16:06:13.600Z,93.27
2023-02-01T16:08:52.564Z,93.85
2023-02-01T16:11:23.683Z,94.35
2023-02-01T16:13:51.204Z,94.72
2023-02-01T16:16:18.917Z,95.61
2023-02-01T16:18:46.635Z,97.03
2023-02-01T16:21:14.113Z,97.01
2023-02-01T16:23:41.619Z,97.48
2023-02-01T16:26:15.711Z,97.77
2023-02-01T16:28:43.557Z,98.73
2023-02-01T16:31:20.410Z,99.28
2023-02-01T16:33:51.004Z,98.94
2023-02-01T16:36:19.425Z,98.58
2023-02-01T16:38:49.021Z,99.92
2023-02-01T16:41:18.898Z,100.00
2023-02-01T16:43:46.820Z,100.00
2023-02-01T16:46:21.564Z,100.00
2023-02-01T16:49:17.795Z,100.00
2023-02-01T16:51:45.490Z,100.00
2023-02-01T16:54:13.354Z,100.00
2023-02-01T16:56:43.330Z,100.00
2023-02-01T16:59:11.121Z,100.00
2023-02-01T17:01:42.933Z,100.00
2023-02-01T17:04:11.341Z,100.00
2023-02-01T17:06:39.759Z,100.00
2023-02-01T17:09:07.530Z,100.00
2023-02-01T17:11:35.000Z,100.00
2023-02-01T17:14:22.596Z,100.00
2023-02-01T17:16:51.320Z,100.00
2023-02-01T17:19:24.563Z,100.00
2023-02-01T17:21:56.946Z,100.00
2023-02-01T17:24:28.686Z,100.00
2023-02-01T17:27:04.796Z,100.00
2023-02-01T17:29:32.259Z,100.00
2023-02-01T17:32:01.549Z,100.00
2023-02-01T17:34:29.416Z,100.00
2023-02-01T17:36:57.251Z,100.00
2023-02-01T17:39:51.081Z,100.00
2023-02-01T17:42:18.617Z,100.00
2023-02-01T17:44:46.599Z,100.00
2023-02-01T17:47:13.963Z,100.00
2023-02-01T17:49:41.388Z,100.00
2023-02-01T17:52:17.076Z,100.00
2023-02-01T17:54:46.383Z,100.00
2023-02-01T17:57:14.077Z,100.00
2023-02-01T17:59:41.531Z,100.00
2023-02-01T18:02:35.534Z,100.00
2023-02-01T18:05:03.019Z,100.00
2023-02-01T18:07:30.478Z,100.00
2023-02-01T18:09:58.002Z,100.00
2023-02-01T18:12:26.527Z,100.00
2023-02-01T18:14:54.180Z,100.00
2023-02-01T18:17:21.649Z,100.00
2023-02-01T18:19:49.264Z,100.00
2023-02-01T18:22:19.970Z,100.00
2023-02-01T18:24:47.616Z,100.00
2023-02-01T18:27:15.143Z,100.00
2023-02-01T18:29:42.551Z,100.00
2023-02-01T18:32:11.037Z,100.00
2023-02-01T18:34:38.490Z,100.00
2023-02-01T18:37:05.927Z,100.00
2023-02-01T18:39:33.655Z,100.00
2023-02-01T18:42:01.042Z,100.00
2023-02-01T18:44:28.409Z,100.00
2023-02-01T18:46:55.778Z,100.00
2023-02-01T18:49:23.343Z,100.00
2023-02-01T18:51:52.209Z,100.00
2023-02-01T18:54:19.970Z,100.00
2023-02-01T18:56:47.653Z,100.00
2023-02-01T18:59:17.457Z,100.00
2023-02-01T19:01:45.192Z,100.00
2023-02-01T19:04:19.802Z,100.00
2023-02-01T19:06:53.583Z,100.00
2023-02-01T19:09:21.194Z,100.00
2023-02-01T19:11:48.648Z,100.00
2023-02-01T19:14:16.058Z,100.00
2023-02-01T19:16:44.499Z,100.00
2023-02-01T19:19:12.055Z,100.00
2023-02-01T19:21:39.481Z,100.00
2023-02-01T19:24:07.389Z,100.00
2023-02-01T19:26:35.035Z,100.00
2023-02-01T19:29:02.724Z,100.00
2023-02-01T19:31:30.478Z,100.00
2023-02-01T19:33:58.011Z,100.00
2023-02-01T19:36:26.862Z,100.00
2023-02-01T19:38:54.449Z,100.00
2023-02-01T19:41:21.891Z,100.00
2023-02-01T19:43:49.537Z,100.00
2023-02-01T19:46:17.051Z,100.00
2023-02-01T19:48:44.487Z,100.00
2023-02-01T19:51:12.827Z,100.00
2023-02-01T19:53:40.313Z,100.00
2023-02-01T19:56:08.089Z,100.00
2023-02-01T19:58:35.570Z,100.00
2023-02-01T20:01:02.829Z,100.00
2023-02-01T20:03:30.264Z,100.00
2023-02-01T20:05:58.966Z,100.00
2023-02-01T20:08:26.809Z,100.00
2023-02-01T20:10:54.348Z,100.00
2023-02-01T20:13:21.768Z,100.00
2023-02-01T20:15:55.487Z,100.00
2023-02-01T20:18:22.998Z,100.00
2023-02-01T20:20:54.309Z,100.00
2023-02-01T20:23:21.772Z,100.00
2023-02-01T20:25:50.212Z,100.00
2023-02-01T20:28:17.753Z,100.00
2023-02-01T20:30:46.133Z,100.00
2023-02-01T20:33:13.698Z,100.00
2023-02-01T20:35:45.291Z,100.00
2023-02-01T20:38:12.781Z,100.00
2023-02-01T20:40:40.447Z,100.00
2023-02-01T20:43:09.017Z,100.00
2023-02-01T20:45:43.511Z,100.00
2023-02-01T20:48:12.055Z,100.00
2023-02-01T20:50:39.763Z,100.00
2023-02-01T20:53:07.220Z,100.00
2023-02-01T20:55:34.683Z,100.00
2023-02-01T20:58:02.038Z,100.00
2023-02-01T21:00:31.165Z,100.00
2023-02-01T21:02:58.657Z,100.00
2023-02-01T21:05:39.844Z,100.00
2023-02-01T21:08:09.127Z,100.00
2023-02-01T21:10:36.747Z,100.00
2023-02-01T21:13:05.533Z,100.00
2023-02-01T21:15:36.238Z,100.00
2023-02-01T21:18:05.895Z,100.00
2023-02-01T21:20:33.228Z,100.00
2023-02-01T21:23:00.537Z,100.00
2023-02-01T21:25:28.043Z,100.00
2023-02-01T21:27:55.353Z,100.00
2023-02-01T21:30:22.761Z,100.00
2023-02-01T21:32:50.268Z,100.00
2023-02-01T21:35:17.681Z,100.00
2023-02-01T21:37:44.966Z,100.00
2023-02-01T21:40:12.861Z,100.00
2023-02-01T21:42:42.725Z,100.00
2023-02-01T21:45:10.470Z,100.00
2023-02-01T21:47:38.636Z,100.00
2023-02-01T21:50:18.047Z,100.00
2023-02-01T21:52:46.364Z,100.00
2023-02-01T21:55:14.282Z,100.00
2023-02-01T21:57:42.441Z,100.00
2023-02-01T22:00:10.316Z,100.00
2023-02-01T22:02:37.718Z,100.00
2023-02-01T22:05:06.649Z,100.00
2023-02-01T22:07:36.030Z,100.00
2023-02-01T22:10:04.252Z,100.00
2023-02-01T22:12:31.578Z,100.00
2023-02-01T22:14:58.892Z,100.00
2023-02-01T22:17:27.349Z,100.00
2023-02-01T22:19:54.631Z,100.00
2023-02-01T22:22:21.983Z,100.00
2023-02-01T22:24:49.309Z,100.00
2023-02-01T22:27:16.808Z,100.00
2023-02-01T22:29:44.113Z,100.00
2023-02-01T22:32:13.288Z,100.00
2023-02-01T22:34:41.510Z,100.00
2023-02-01T22:37:10.571Z,100.00
2023-02-01T22:39:38.397Z,100.00
2023-02-01T22:42:06.807Z,100.00
2023-02-01T22:44:34.076Z,100.00
2023-02-01T22:47:01.427Z,100.00
2023-02-01T22:49:28.933Z,100.00
2023-02-01T22:51:56.602Z,100.00
2023-02-01T22:54:23.919Z,100.00
2023-02-01T22:56:51.376Z,100.00
2023-02-01T22:59:18.715Z,100.00
2023-02-01T23:01:46.106Z,100.00
2023-02-01T23:04:15.019Z,100.00
2023-02-01T23:06:42.713Z,100.00
2023-02-01T23:09:21.910Z,100.00
2023-02-01T23:11:49.738Z,100.00
2023-02-01T23:14:17.758Z,100.00
2023-02-01T23:16:46.214Z,100.00
2023-02-01T23:19:14.140Z,100.00
2023-02-01T23:21:41.932Z,100.00
2023-02-01T23:24:10.794Z,100.00
2023-02-01T23:26:38.572Z,100.00
2023-02-01T23:29:06.174Z,100.00
2023-02-01T23:31:35.121Z,100.00
2023-02-01T23:34:03.552Z,100.00
2023-02-01T23:36:32.962Z,100.00
2023-02-01T23:39:01.018Z,100.00
2023-02-01T23:41:30.062Z,100.00
2023-02-01T23:43:57.633Z,100.00
2023-02-01T23:46:30.112Z,100.00
2023-02-01T23:48:57.936Z,100.00
2023-02-01T23:51:26.154Z,100.00
2023-02-01T23:53:54.419Z,100.00
2023-02-01T23:56:33.635Z,100.00
2023-02-01T23:59:06.528Z,100.00
